Time;durP1;ratioP1;P1;durP2;ratioP2;P2;SDS_P1;SDS_P2;PMS_P1;PMS_P2;Temp;Humidity;BMP_temperature;BMP_pressure;BME280_temperature;BME280_humidity;BME280_pressure;Samples;Min_cycle;Max_cycle;Signal;HPM_P1;HPM_P2
2022/01/24 00:00:34;;;;;;;103.57;63.08;;;5.50;85.20;;;;;;5028631;28;20050;-95
2022/01/24 00:03:00;;;;;;;87.38;52.30;;;5.50;85.50;;;;;;5026286;28;20037;-94
2022/01/24 00:05:26;;;;;;;78.07;49.00;;;5.40;85.70;;;;;;5026801;28;20033;-94
2022/01/24 00:07:52;;;;;;;75.28;47.08;;;5.60;85.40;;;;;;5022759;28;20045;-96
2022/01/24 00:10:21;;;;;;;80.72;51.05;;;5.70;84.90;;;;;;5023284;28;20455;-93
2022/01/24 00:15:53;;;;;;;91.05;53.05;;;5.80;84.40;;;;;;5038261;28;20064;-95
2022/01/24 00:26:47;;;;;;;90.05;52.25;;;5.50;86.00;;;;;;5037095;28;20040;-96
2022/01/24 00:29:18;;;;;;;69.03;43.83;;;5.60;85.40;;;;;;5029188;28;20481;-94
2022/01/24 00:31:45;;;;;;;68.90;42.10;;;5.70;85.10;;;;;;5048701;28;20026;-94
2022/01/24 00:34:11;;;;;;;100.82;60.55;;;5.80;84.70;;;;;;5031822;28;20045;-93
2022/01/24 00:36:38;;;;;;;85.10;52.28;;;5.80;84.30;;;;;;5026556;28;20056;-94
2022/01/24 00:39:05;;;;;;;86.45;51.75;;;5.70;84.60;;;;;;5027421;28;20482;-96
2022/01/24 00:41:43;;;;;;;106.55;61.60;;;5.70;84.50;;;;;;5032393;28;20052;-94
2022/01/24 00:46:57;;;;;;;85.75;51.35;;;5.50;85.40;;;;;;5035859;28;20593;-96
2022/01/24 00:54:43;;;;;;;100.10;59.35;;;5.50;85.60;;;;;;5036070;28;20588;-96
2022/01/24 00:57:08;;;;;;;101.13;63.35;;;5.50;85.40;;;;;;5022781;28;20072;-96
2022/01/24 00:59:34;;;;;;;91.47;53.40;;;5.40;85.40;;;;;;5021953;28;20073;-96
2022/01/24 01:02:00;;;;;;;88.18;52.72;;;5.30;85.90;;;;;;5044228;28;20111;-95
2022/01/24 01:04:34;;;;;;;96.72;57.25;;;5.40;85.60;;;;;;5021858;28;20096;-96
2022/01/24 01:07:06;;;;;;;89.10;56.08;;;5.40;85.50;;;;;;5027825;28;20057;-96
2022/01/24 01:23:30;;;;;;;71.95;44.05;;;5.60;84.10;;;;;;4971311;28;20038;-96
2022/01/24 01:26:00;;;;;;;72.13;45.13;;;5.50;84.30;;;;;;5001714;28;20037;-95
2022/01/24 01:28:27;;;;;;;68.95;42.42;;;5.60;84.20;;;;;;5022176;28;20049;-95
2022/01/24 01:30:57;;;;;;;79.38;48.22;;;5.60;83.90;;;;;;5023862;28;20049;-96
2022/01/24 01:33:42;;;;;;;90.20;54.45;;;5.60;83.60;;;;;;5024207;28;20049;-96
2022/01/24 01:55:06;;;;;;;68.18;41.67;;;5.50;83.90;;;;;;4972053;28;20019;-94
2022/01/24 01:57:32;;;;;;;83.55;48.88;;;5.50;84.00;;;;;;5007483;28;20033;-95
2022/01/24 01:59:58;;;;;;;73.22;44.42;;;5.50;83.80;;;;;;5022951;28;20037;-95
2022/01/24 02:02:23;;;;;;;70.70;44.78;;;5.40;83.90;;;;;;5048988;28;20040;-95
2022/01/24 02:04:49;;;;;;;64.60;40.38;;;5.40;84.20;;;;;;5026639;28;20045;-94
2022/01/24 02:07:16;;;;;;;69.25;42.00;;;5.40;84.30;;;;;;5023444;28;20057;-95
2022/01/24 02:09:44;;;;;;;67.00;40.92;;;5.50;83.70;;;;;;5025732;28;20112;-96
2022/01/24 02:12:11;;;;;;;67.82;40.58;;;5.50;83.40;;;;;;5045195;28;20057;-95
2022/01/24 02:14:42;;;;;;;64.60;40.58;;;5.50;83.40;;;;;;5022565;28;20033;-96
2022/01/24 02:17:14;;;;;;;77.50;47.42;;;5.60;83.30;;;;;;5025319;28;20046;-94
2022/01/24 02:20:09;;;;;;;68.03;42.03;;;5.60;82.90;;;;;;5021864;28;20499;-94
2022/01/24 02:23:21;;;;;;;67.72;41.85;;;5.50;83.10;;;;;;5039079;28;20033;-95
2022/01/24 02:25:27;;;;;;;67.00;39.63;;;5.50;83.30;;;;;;5026596;28;20056;-95
2022/01/24 02:28:00;;;;;;;72.45;41.75;;;5.50;83.00;;;;;;5038745;28;20061;-95
2022/01/24 02:33:05;;;;;;;61.50;37.75;;;5.50;83.00;;;;;;5048298;28;20055;-96
2022/01/24 02:35:31;;;;;;;59.08;39.85;;;5.50;83.20;;;;;;5019313;28;20037;-95
2022/01/24 02:38:01;;;;;;;67.03;40.97;;;5.50;83.20;;;;;;5019017;28;20025;-94
2022/01/24 02:40:27;;;;;;;73.68;44.50;;;5.50;82.90;;;;;;5020614;28;20044;-95
2022/01/24 02:48:28;;;;;;;73.68;43.53;;;5.50;83.60;;;;;;5038326;28;20532;-94
2022/01/24 02:53:35;;;;;;;63.65;37.85;;;5.40;83.80;;;;;;5034976;28;20051;-95
2022/01/24 02:56:02;;;;;;;63.55;41.30;;;5.50;83.60;;;;;;5028202;28;20025;-95
2022/01/24 02:58:28;;;;;;;62.47;38.17;;;5.50;83.30;;;;;;5027344;28;20144;-94
2022/01/24 03:00:54;;;;;;;65.53;40.33;;;5.50;83.40;;;;;;5032637;28;20056;-95
2022/01/24 03:03:21;;;;;;;61.45;38.10;;;5.50;83.20;;;;;;5039233;28;20045;-94
2022/01/24 03:05:46;;;;;;;59.53;37.95;;;5.50;82.90;;;;;;5022828;28;20057;-96
2022/01/24 03:08:14;;;;;;;59.70;36.03;;;5.50;82.90;;;;;;5038166;28;20026;-93
2022/01/24 03:10:44;;;;;;;58.45;37.83;;;5.50;83.10;;;;;;5014484;28;20037;-94
2022/01/24 03:15:43;;;;;;;64.97;39.97;;;5.50;83.00;;;;;;5037913;28;20393;-96
2022/01/24 03:18:12;;;;;;;65.65;40.67;;;5.50;82.70;;;;;;5026854;28;20033;-94
2022/01/24 03:20:38;;;;;;;70.55;41.67;;;5.50;82.90;;;;;;5025432;28;20041;-94
2022/01/24 03:23:04;;;;;;;63.35;40.42;;;5.50;83.20;;;;;;5026896;28;20025;-95
2022/01/24 03:25:31;;;;;;;65.82;39.47;;;5.50;83.00;;;;;;5037571;28;20026;-93
2022/01/24 03:27:57;;;;;;;68.53;40.85;;;5.50;82.80;;;;;;5024661;28;20042;-96
2022/01/24 03:30:23;;;;;;;60.17;37.58;;;5.50;82.70;;;;;;5027474;28;20068;-95
2022/01/24 03:32:49;;;;;;;62.22;37.72;;;5.50;82.80;;;;;;5023657;28;20072;-94
2022/01/24 03:35:15;;;;;;;68.38;43.50;;;5.50;82.60;;;;;;5021320;28;20361;-95
2022/01/24 03:37:41;;;;;;;71.38;40.75;;;5.50;82.60;;;;;;5021769;28;20400;-96
2022/01/24 03:40:07;;;;;;;71.55;41.10;;;5.50;82.80;;;;;;5037110;28;20028;-96
2022/01/24 03:42:33;;;;;;;67.20;42.85;;;5.50;82.90;;;;;;5041026;28;20038;-95
2022/01/24 03:45:03;;;;;;;69.38;44.65;;;5.40;82.80;;;;;;5022055;28;20047;-94
2022/01/24 03:48:26;;;;;;;73.55;44.05;;;5.30;82.90;;;;;;5037006;28;20120;-96
2022/01/24 03:50:17;;;;;;;67.47;38.88;;;5.40;83.20;;;;;;5013552;28;20044;-96
2022/01/24 03:52:46;;;;;;;66.40;40.03;;;5.40;83.00;;;;;;5039964;28;20017;-95
2022/01/24 03:55:13;;;;;;;61.33;39.67;;;5.40;82.60;;;;;;5042383;28;20045;-96
2022/01/24 03:57:40;;;;;;;67.32;41.90;;;5.40;82.70;;;;;;5032122;28;20030;-95
2022/01/24 04:00:08;;;;;;;65.72;40.88;;;5.40;82.70;;;;;;5038287;28;20045;-96
2022/01/24 04:02:34;;;;;;;65.50;39.28;;;5.40;82.30;;;;;;5034765;28;20639;-95
2022/01/24 04:04:59;;;;;;;70.07;42.85;;;5.40;82.00;;;;;;5022318;28;20050;-95
2022/01/24 04:07:25;;;;;;;60.40;37.38;;;5.40;82.00;;;;;;5038048;28;20382;-96
2022/01/24 04:09:51;;;;;;;75.18;44.60;;;5.40;82.20;;;;;;5037511;28;20482;-95
2022/01/24 04:12:17;;;;;;;65.07;40.22;;;5.30;82.50;;;;;;5017355;28;20380;-95
2022/01/24 04:22:33;;;;;;;69.90;41.53;;;5.40;82.60;;;;;;5036275;28;20056;-94
2022/01/24 04:25:01;;;;;;;68.00;39.97;;;5.40;83.10;;;;;;5018728;28;20068;-95
2022/01/24 04:27:28;;;;;;;63.70;38.97;;;5.40;82.90;;;;;;5020102;28;20061;-94
2022/01/24 04:29:54;;;;;;;58.22;36.80;;;5.40;83.00;;;;;;5026982;28;20042;-94
2022/01/24 04:32:22;;;;;;;79.00;49.38;;;5.40;82.90;;;;;;5024661;28;20029;-94
2022/01/24 04:34:49;;;;;;;89.18;52.38;;;5.30;82.90;;;;;;5042313;28;20251;-94
2022/01/24 04:37:15;;;;;;;90.50;53.53;;;5.10;83.50;;;;;;5036962;28;20042;-94
2022/01/24 04:39:45;;;;;;;76.53;50.17;;;5.00;83.90;;;;;;5040963;28;20362;-94
2022/01/24 04:42:16;;;;;;;76.10;47.20;;;4.90;84.50;;;;;;5040679;28;20060;-96
2022/01/24 04:53:30;;;;;;;92.05;56.17;;;4.70;85.40;;;;;;5039063;28;20597;-94
2022/01/24 04:55:20;;;;;;;83.32;52.42;;;4.60;85.10;;;;;;5023088;28;20231;-94
2022/01/24 04:57:46;;;;;;;84.03;53.38;;;4.50;85.20;;;;;;5016117;28;20087;-96
2022/01/24 05:00:13;;;;;;;94.97;58.55;;;4.60;85.50;;;;;;5016835;28;20025;-95
2022/01/24 05:02:39;;;;;;;97.97;60.13;;;4.40;85.60;;;;;;5025127;28;20132;-94
2022/01/24 05:05:08;;;;;;;82.57;49.65;;;4.30;85.80;;;;;;5023109;28;20124;-94
2022/01/24 05:07:34;;;;;;;96.32;57.00;;;4.20;86.20;;;;;;5024706;28;20057;-95
2022/01/24 05:10:08;;;;;;;82.97;51.58;;;4.10;86.00;;;;;;5013251;28;20504;-95
2022/01/24 05:24:03;;;;;;;91.18;53.53;;;4.00;87.10;;;;;;4967064;28;20070;-96
2022/01/24 05:26:28;;;;;;;91.30;54.95;;;4.00;87.10;;;;;;5017427;28;20374;-95
2022/01/24 05:28:54;;;;;;;89.78;53.50;;;4.00;87.10;;;;;;5021323;28;20400;-96
2022/01/24 05:31:21;;;;;;;85.50;49.63;;;4.00;87.30;;;;;;5017451;28;20051;-95
2022/01/24 05:33:49;;;;;;;80.82;47.28;;;4.10;87.10;;;;;;5030659;28;20092;-95
2022/01/24 05:36:17;;;;;;;85.82;48.60;;;4.00;86.90;;;;;;5026293;28;20100;-92
2022/01/24 05:38:46;;;;;;;86.72;50.25;;;4.00;86.90;;;;;;5020324;28;20458;-94
2022/01/24 05:41:12;;;;;;;75.32;46.58;;;4.00;87.00;;;;;;5019241;28;20111;-93
2022/01/24 05:43:38;;;;;;;84.25;49.53;;;4.00;86.80;;;;;;5023419;28;20467;-93
2022/01/24 05:46:03;;;;;;;81.28;47.40;;;4.00;87.00;;;;;;5018477;28;20560;-92
2022/01/24 05:48:29;;;;;;;80.03;49.40;;;4.00;86.90;;;;;;5020574;28;20052;-92
2022/01/24 05:50:55;;;;;;;74.25;42.47;;;3.90;86.60;;;;;;5017730;28;20144;-93
2022/01/24 05:53:33;;;;;;;79.75;48.20;;;3.90;86.70;;;;;;5027954;28;20458;-96
2022/01/24 05:56:13;;;;;;;70.18;42.25;;;3.90;86.70;;;;;;5015837;28;20033;-95
2022/01/24 05:58:40;;;;;;;76.82;46.38;;;3.90;86.60;;;;;;5023905;28;20044;-96
2022/01/24 06:01:12;;;;;;;73.65;43.92;;;4.00;86.40;;;;;;5042528;28;20059;-96
2022/01/24 06:04:13;;;;;;;76.25;46.03;;;4.00;86.20;;;;;;5047372;28;20060;-96
2022/01/24 06:07:12;;;;;;;73.40;43.80;;;4.20;86.60;;;;;;5007037;28;20053;-96
2022/01/24 06:09:49;;;;;;;80.43;46.50;;;4.10;85.80;;;;;;4970636;28;20039;-96
2022/01/24 06:12:34;;;;;;;77.72;44.97;;;4.00;86.20;;;;;;5050194;28;20038;-96
2022/01/24 06:15:01;;;;;;;86.15;51.80;;;4.00;86.40;;;;;;5028375;28;20167;-96
2022/01/24 06:17:30;;;;;;;75.88;41.47;;;3.90;86.20;;;;;;5052068;28;20033;-96
2022/01/24 06:20:00;;;;;;;73.95;43.13;;;3.80;87.20;;;;;;5032997;28;20104;-96
2022/01/24 06:22:42;;;;;;;76.20;45.08;;;3.90;86.80;;;;;;5035976;28;20072;-96
2022/01/24 06:25:37;;;;;;;79.53;46.35;;;3.80;86.80;;;;;;5036844;28;20048;-96
2022/01/24 06:30:33;;;;;;;80.97;49.72;;;3.80;87.00;;;;;;5023644;28;20422;-84
2022/01/24 06:32:59;;;;;;;81.00;49.10;;;3.70;86.80;;;;;;5022392;28;20030;-84
2022/01/24 06:35:25;;;;;;;84.10;50.70;;;3.70;87.00;;;;;;5014824;28;20090;-84
2022/01/24 06:37:50;;;;;;;83.35;51.60;;;3.60;87.20;;;;;;5034568;28;20390;-84
2022/01/24 06:40:16;;;;;;;77.07;45.63;;;3.60;87.30;;;;;;5032718;28;20382;-85
2022/01/24 06:42:42;;;;;;;64.43;39.05;;;3.60;87.50;;;;;;5032814;28;20053;-86
2022/01/24 06:45:09;;;;;;;74.53;43.05;;;3.60;87.50;;;;;;5031229;28;20036;-84
2022/01/24 06:47:35;;;;;;;68.53;42.40;;;3.60;87.20;;;;;;5011378;28;20449;-82
2022/01/24 06:50:01;;;;;;;71.78;43.33;;;3.70;87.40;;;;;;5030766;28;20045;-82
2022/01/24 06:52:27;;;;;;;73.25;44.90;;;3.80;86.60;;;;;;5026680;28;20038;-81
2022/01/24 06:54:53;;;;;;;84.85;49.42;;;3.80;86.60;;;;;;5003742;28;20401;-81
2022/01/24 06:57:19;;;;;;;74.70;45.05;;;3.70;86.70;;;;;;5020150;28;20064;-81
2022/01/24 06:59:46;;;;;;;76.03;44.85;;;3.60;87.20;;;;;;5025422;28;20049;-81
2022/01/24 07:02:13;;;;;;;86.53;51.58;;;3.60;87.20;;;;;;5024929;28;20041;-82
2022/01/24 07:04:41;;;;;;;74.80;45.63;;;3.60;87.30;;;;;;5026736;28;20037;-81
2022/01/24 07:07:09;;;;;;;84.40;48.72;;;3.60;87.30;;;;;;5009743;28;20034;-80
2022/01/24 07:09:35;;;;;;;81.75;50.05;;;3.60;87.00;;;;;;5027311;28;20037;-80
2022/01/24 07:12:02;;;;;;;83.57;48.13;;;3.60;86.80;;;;;;5024133;28;20041;-80
2022/01/24 07:14:27;;;;;;;83.38;48.78;;;3.60;86.90;;;;;;5029989;28;20112;-79
2022/01/24 07:19:27;;;;;;;80.03;48.28;;;3.60;86.30;;;;;;5027510;28;20054;-79
2022/01/24 07:21:58;;;;;;;73.07;45.67;;;3.60;86.60;;;;;;5006878;28;20174;-78
2022/01/24 07:24:25;;;;;;;65.47;42.58;;;3.60;86.70;;;;;;5011030;28;20049;-79
2022/01/24 07:26:51;;;;;;;73.30;43.78;;;3.60;86.50;;;;;;5022551;28;20030;-79
2022/01/24 07:29:22;;;;;;;71.13;43.97;;;3.60;86.20;;;;;;5031140;28;20470;-82
2022/01/24 07:31:48;;;;;;;80.78;47.35;;;3.70;85.80;;;;;;5024752;28;20038;-82
2022/01/24 07:34:15;;;;;;;70.18;41.95;;;3.70;85.80;;;;;;5032254;28;20041;-82
2022/01/24 07:36:41;;;;;;;70.10;42.20;;;3.70;86.20;;;;;;5031509;28;20046;-81
2022/01/24 07:39:07;;;;;;;79.32;47.40;;;3.70;85.80;;;;;;5026237;28;20041;-81
2022/01/24 07:41:41;;;;;;;73.65;44.42;;;3.60;85.90;;;;;;5032001;28;20043;-78
2022/01/24 07:44:07;;;;;;;71.00;43.92;;;3.70;85.60;;;;;;5032103;28;20041;-78
2022/01/24 07:46:33;;;;;;;74.18;45.05;;;3.70;86.10;;;;;;5026260;28;20381;-78
2022/01/24 07:49:02;;;;;;;66.85;40.55;;;3.70;85.90;;;;;;5032284;28;20081;-78
2022/01/24 07:51:28;;;;;;;68.67;44.80;;;3.80;86.30;;;;;;5033765;28;20381;-78
2022/01/24 07:53:54;;;;;;;75.57;45.35;;;3.70;85.90;;;;;;5012899;28;20116;-78
2022/01/24 07:56:20;;;;;;;73.03;44.72;;;3.80;86.00;;;;;;5007435;28;20045;-78
2022/01/24 07:58:46;;;;;;;75.03;44.38;;;3.80;86.10;;;;;;5028030;28;20047;-78
2022/01/24 08:01:13;;;;;;;78.28;44.42;;;3.80;86.10;;;;;;5022596;28;20128;-78
2022/01/24 08:03:38;;;;;;;74.63;45.72;;;3.90;86.10;;;;;;5022441;28;20037;-81
2022/01/24 08:06:04;;;;;;;67.72;44.08;;;3.90;85.90;;;;;;5033412;28;20112;-80
2022/01/24 08:08:30;;;;;;;73.32;46.15;;;4.00;85.90;;;;;;5025457;28;20029;-81
2022/01/24 08:10:55;;;;;;;69.10;40.72;;;4.00;86.10;;;;;;5025765;28;20600;-80
2022/01/24 08:13:21;;;;;;;71.75;44.75;;;4.00;86.00;;;;;;5029614;28;20031;-82
2022/01/24 08:15:47;;;;;;;71.80;43.90;;;4.10;85.50;;;;;;5022369;28;20079;-80
2022/01/24 08:18:14;;;;;;;63.15;39.38;;;4.20;85.10;;;;;;5013781;28;20053;-80
2022/01/24 08:20:41;;;;;;;64.28;39.85;;;4.20;85.30;;;;;;5008562;28;20034;-81
2022/01/24 08:23:11;;;;;;;60.58;38.83;;;4.30;84.90;;;;;;5012527;28;20049;-81
2022/01/24 08:25:37;;;;;;;62.85;38.50;;;4.40;84.40;;;;;;5025784;28;20044;-80
2022/01/24 08:28:03;;;;;;;66.95;42.03;;;4.40;84.30;;;;;;5025601;28;20042;-81
2022/01/24 08:30:29;;;;;;;74.40;46.42;;;4.40;83.80;;;;;;4999016;28;20050;-81
2022/01/24 08:32:55;;;;;;;70.70;42.95;;;4.40;83.70;;;;;;5025808;28;20037;-81
2022/01/24 08:35:21;;;;;;;71.82;46.78;;;4.30;83.90;;;;;;5024676;28;20046;-81
2022/01/24 08:37:47;;;;;;;61.05;39.72;;;4.30;83.80;;;;;;5033550;28;20385;-81
2022/01/24 08:40:21;;;;;;;69.47;42.20;;;4.40;84.40;;;;;;5025521;28;20041;-81
2022/01/24 08:43:00;;;;;;;70.82;44.50;;;4.50;84.00;;;;;;5015233;28;20125;-80
2022/01/24 08:45:47;;;;;;;67.25;43.08;;;4.50;83.90;;;;;;5025238;28;20045;-81
2022/01/24 08:48:16;;;;;;;54.75;33.67;;;4.50;83.80;;;;;;5025945;28;20038;-81
2022/01/24 08:50:43;;;;;;;74.25;43.90;;;4.60;84.20;;;;;;5022369;28;20041;-81
2022/01/24 08:53:10;;;;;;;80.90;51.20;;;4.70;83.10;;;;;;5007915;28;20033;-81
2022/01/24 08:55:37;;;;;;;69.03;43.08;;;4.70;83.20;;;;;;5022617;28;20112;-81
2022/01/24 08:58:04;;;;;;;68.82;42.67;;;4.70;83.90;;;;;;5024110;28;20045;-78
2022/01/24 09:00:30;;;;;;;55.35;37.67;;;4.90;83.20;;;;;;5032230;28;20044;-78
2022/01/24 09:02:56;;;;;;;67.72;41.72;;;5.00;83.40;;;;;;5024284;28;20042;-78
2022/01/24 09:05:23;;;;;;;70.03;47.50;;;5.20;82.80;;;;;;5023839;28;20363;-78
2022/01/24 09:07:49;;;;;;;69.55;49.25;;;5.30;81.70;;;;;;5025728;28;20041;-78
2022/01/24 09:10:18;;;;;;;67.78;47.08;;;5.10;81.80;;;;;;5024139;28;20038;-78
2022/01/24 09:12:44;;;;;;;71.47;44.38;;;5.00;82.40;;;;;;5035399;28;20029;-78
2022/01/24 09:15:10;;;;;;;64.25;39.72;;;5.00;82.70;;;;;;5009968;28;20107;-78
2022/01/24 09:17:36;;;;;;;68.07;44.95;;;5.20;82.50;;;;;;5033379;28;20100;-78
2022/01/24 09:20:04;;;;;;;76.72;48.92;;;5.20;81.90;;;;;;5009761;28;20042;-78
2022/01/24 09:22:30;;;;;;;69.18;47.35;;;5.20;81.90;;;;;;5035183;28;20048;-78
2022/01/24 09:24:55;;;;;;;64.60;41.38;;;5.10;82.50;;;;;;5006465;28;20469;-78
2022/01/24 09:27:21;;;;;;;68.03;43.58;;;5.20;82.50;;;;;;5013784;28;20038;-79
2022/01/24 09:29:48;;;;;;;63.40;39.88;;;5.40;81.50;;;;;;5026511;28;20060;-78
2022/01/24 09:32:14;;;;;;;61.40;41.60;;;5.40;81.60;;;;;;5021926;28;20501;-78
2022/01/24 09:34:40;;;;;;;57.88;39.15;;;5.50;80.80;;;;;;5027479;28;20128;-78
2022/01/24 09:37:06;;;;;;;53.85;34.50;;;5.60;81.00;;;;;;5017943;28;20128;-77
2022/01/24 09:39:31;;;;;;;59.78;38.40;;;5.70;80.60;;;;;;5017559;28;20044;-78
2022/01/24 09:41:57;;;;;;;44.70;31.23;;;5.90;80.30;;;;;;5027361;28;20045;-78
2022/01/24 09:44:23;;;;;;;53.33;33.72;;;6.10;80.20;;;;;;5027665;28;20067;-78
2022/01/24 09:46:48;;;;;;;48.25;32.47;;;6.30;78.90;;;;;;5017013;28;20052;-81
2022/01/24 09:49:14;;;;;;;55.25;37.35;;;6.50;78.40;;;;;;5022712;28;20029;-81
2022/01/24 09:51:40;;;;;;;53.80;35.67;;;6.60;77.90;;;;;;5032417;28;20025;-81
2022/01/24 09:54:07;;;;;;;54.90;37.75;;;6.60;78.00;;;;;;5031971;28;20053;-81
2022/01/24 09:56:34;;;;;;;49.25;33.67;;;6.70;77.70;;;;;;5029290;28;20037;-81
2022/01/24 09:59:01;;;;;;;63.55;43.88;;;6.70;78.00;;;;;;5037266;28;20045;-77
2022/01/24 10:01:27;;;;;;;48.53;33.45;;;6.90;77.60;;;;;;5036632;28;20041;-79
2022/01/24 10:04:07;;;;;;;47.47;32.75;;;7.10;77.00;;;;;;5025181;28;20054;-78
2022/01/24 10:07:15;;;;;;;42.30;29.75;;;7.40;76.90;;;;;;5006029;28;20042;-79
2022/01/24 10:09:54;;;;;;;39.15;26.05;;;7.70;76.40;;;;;;5024097;28;20040;-79
2022/01/24 10:17:37;;;;;;;49.80;31.83;;;8.70;74.90;;;;;;5027342;28;20040;-80
2022/01/24 10:20:19;;;;;;;44.13;30.05;;;8.90;72.30;;;;;;5032848;28;20045;-80
2022/01/24 10:23:20;;;;;;;45.08;28.70;;;9.10;73.60;;;;;;5018927;28;20042;-81
2022/01/24 10:25:51;;;;;;;37.03;26.65;;;9.30;72.90;;;;;;5026743;28;20045;-78
2022/01/24 10:28:27;;;;;;;37.90;28.10;;;9.50;72.50;;;;;;5010151;28;20025;-79
2022/01/24 10:31:16;;;;;;;40.17;29.10;;;9.70;72.00;;;;;;5033308;28;20063;-79
2022/01/24 10:34:16;;;;;;;43.45;30.38;;;9.90;69.10;;;;;;5010696;28;20469;-79
2022/01/24 10:36:45;;;;;;;;;;;10.10;70.30;;;;;;5026788;28;20458;-79
2022/01/24 10:39:14;;;;;;;41.42;28.83;;;10.30;70.30;;;;;;5009594;28;19928;-79
2022/01/24 10:42:11;;;;;;;41.25;29.83;;;10.50;70.00;;;;;;5004460;28;20471;-78
2022/01/24 10:44:37;;;;;;;43.50;31.67;;;10.70;70.00;;;;;;5033692;28;20370;-78
2022/01/24 10:47:23;;;;;;;43.90;29.67;;;10.90;69.10;;;;;;5004190;28;20044;-79
2022/01/24 10:49:49;;;;;;;41.38;30.85;;;11.10;68.50;;;;;;5026956;28;20060;-78
2022/01/24 10:52:22;;;;;;;45.08;31.77;;;11.20;67.50;;;;;;5030630;28;20061;-78
2022/01/24 10:54:49;;;;;;;46.08;31.63;;;11.30;67.10;;;;;;5026049;28;20033;-78
2022/01/24 10:57:24;;;;;;;41.33;31.00;;;11.40;65.70;;;;;;5026184;28;20045;-78
2022/01/24 10:59:51;;;;;;;44.30;31.85;;;11.50;65.40;;;;;;5029403;28;20395;-79
2022/01/24 11:02:17;;;;;;;46.88;31.75;;;11.50;65.30;;;;;;5009247;28;20037;-78
2022/01/24 11:04:43;;;;;;;46.58;34.05;;;11.50;64.80;;;;;;5019977;28;20038;-78
2022/01/24 11:07:09;;;;;;;46.53;33.58;;;11.50;64.50;;;;;;5019305;28;20034;-78
2022/01/24 11:09:40;;;;;;;48.03;32.10;;;11.40;64.60;;;;;;5007358;28;20048;-78
2022/01/24 11:12:12;;;;;;;47.70;34.30;;;11.50;64.50;;;;;;5010787;28;20052;-78
2022/01/24 11:14:43;;;;;;;48.10;35.00;;;11.30;63.00;;;;;;5024253;28;20160;-78
2022/01/24 11:17:13;;;;;;;47.55;34.28;;;11.20;64.50;;;;;;5024010;28;20477;-79
2022/01/24 11:19:48;;;;;;;48.58;33.38;;;11.20;65.00;;;;;;5026440;28;20061;-78
2022/01/24 11:22:24;;;;;;;47.65;34.72;;;11.20;65.40;;;;;;5027341;28;20036;-78
2022/01/24 11:25:02;;;;;;;52.20;36.42;;;11.20;65.30;;;;;;5020491;28;20458;-78
2022/01/24 11:27:29;;;;;;;55.35;37.60;;;11.20;64.90;;;;;;4998220;28;20040;-82
2022/01/24 11:30:05;;;;;;;58.55;38.55;;;11.10;64.90;;;;;;5028805;28;20061;-82
2022/01/24 11:32:53;;;;;;;58.78;37.53;;;11.10;65.20;;;;;;5027201;28;20063;-82
2022/01/24 11:35:38;;;;;;;53.88;37.10;;;11.00;65.80;;;;;;5029757;28;20071;-82
2022/01/24 11:38:24;;;;;;;60.28;39.72;;;11.00;66.40;;;;;;5024126;28;20044;-81
2022/01/24 11:40:54;;;;;;;57.83;39.13;;;11.00;66.10;;;;;;5027997;28;20033;-82
2022/01/24 11:43:34;;;;;;;57.97;40.60;;;10.90;66.10;;;;;;5032259;28;20040;-82
2022/01/24 11:46:06;;;;;;;;;;;10.80;66.50;;;;;;5024232;28;20030;-82
2022/01/24 11:48:33;;;;;;;58.80;39.08;;;10.70;67.10;;;;;;5030300;28;19916;-82
2022/01/24 11:51:10;;;;;;;59.80;38.17;;;10.70;67.80;;;;;;5013782;28;20051;-82
2022/01/24 11:53:45;;;;;;;54.67;38.42;;;10.80;68.20;;;;;;5011663;28;20033;-82
2022/01/24 11:56:22;;;;;;;49.03;37.13;;;10.80;68.20;;;;;;5012438;28;20037;-82
2022/01/24 11:58:48;;;;;;;51.00;36.38;;;10.90;68.30;;;;;;5031855;28;20034;-82
2022/01/24 12:01:39;;;;;;;51.83;37.17;;;10.90;67.80;;;;;;5011981;28;20052;-82
2022/01/24 12:04:05;;;;;;;54.60;37.65;;;11.10;67.60;;;;;;5030421;28;20040;-83
2022/01/24 12:07:15;;;;;;;57.08;38.65;;;11.30;67.50;;;;;;5032275;28;20535;-81
2022/01/24 12:09:40;;;;;;;48.17;35.63;;;11.60;66.70;;;;;;5027249;28;20091;-82
2022/01/24 12:12:39;;;;;;;48.95;37.15;;;11.90;65.60;;;;;;5031346;28;20034;-82
2022/01/24 12:15:07;;;;;;;53.38;37.65;;;12.40;64.10;;;;;;5031642;28;20065;-82
2022/01/24 12:17:51;;;;;;;51.35;36.63;;;12.80;63.80;;;;;;5031674;28;20049;-82
2022/01/24 12:20:34;;;;;;;51.20;37.55;;;13.20;61.60;;;;;;5032763;28;20034;-83
2022/01/24 12:23:19;;;;;;;51.03;36.67;;;13.30;60.60;;;;;;5024238;28;20034;-85
2022/01/24 12:26:06;;;;;;;52.88;38.45;;;13.40;60.70;;;;;;5027579;28;20452;-85
2022/01/24 12:28:41;;;;;;;55.25;39.65;;;13.50;60.70;;;;;;5011508;28;20033;-86
2022/01/24 12:31:13;;;;;;;58.70;42.35;;;13.60;60.10;;;;;;5028315;28;20037;-86
2022/01/24 12:34:08;;;;;;;52.53;40.25;;;13.80;59.00;;;;;;5023010;28;20034;-86
2022/01/24 12:36:38;;;;;;;50.67;37.80;;;14.20;58.60;;;;;;5006762;28;20381;-85
2022/01/24 12:39:25;;;;;;;50.25;38.53;;;14.60;58.20;;;;;;5005846;28;20038;-85
2022/01/24 12:41:56;;;;;;;54.50;40.80;;;15.00;56.40;;;;;;5022624;28;20018;-86
2022/01/24 12:47:05;;;;;;;55.75;43.03;;;15.40;55.50;;;;;;5030120;28;20046;-85
2022/01/24 12:49:32;;;;;;;50.78;38.92;;;15.30;53.70;;;;;;5027993;28;20037;-86
2022/01/24 12:52:06;;;;;;;47.75;36.63;;;15.30;55.00;;;;;;5030783;28;20032;-85
2022/01/24 12:54:35;;;;;;;49.25;36.55;;;15.40;55.80;;;;;;5030474;28;20053;-86
2022/01/24 12:57:05;;;;;;;47.53;35.95;;;15.50;55.40;;;;;;5030293;28;20496;-85
2022/01/24 12:59:35;;;;;;;46.90;34.78;;;15.60;54.60;;;;;;5024529;28;20132;-86
2022/01/24 13:02:04;;;;;;;44.25;33.90;;;15.60;52.50;;;;;;5024175;28;20584;-85
2022/01/24 13:04:38;;;;;;;47.30;34.90;;;15.50;53.50;;;;;;5025589;28;20045;-85
2022/01/24 13:07:30;;;;;;;53.45;36.72;;;15.50;53.40;;;;;;5026761;28;20509;-85
2022/01/24 13:10:21;;;;;;;50.78;35.03;;;15.40;51.70;;;;;;5009124;28;20132;-85
2022/01/24 13:13:07;;;;;;;47.78;35.25;;;15.30;51.80;;;;;;5023516;28;20034;-82
2022/01/24 13:21:40;;;;;;;52.65;35.70;;;15.00;53.30;;;;;;5019731;28;20049;-85
2022/01/24 13:24:06;;;;;;;47.25;35.78;;;14.80;52.60;;;;;;5030463;28;20037;-85
2022/01/24 13:26:32;;;;;;;45.67;34.55;;;14.60;53.40;;;;;;5034664;28;20045;-85
2022/01/24 13:29:05;;;;;;;46.92;33.33;;;14.30;54.60;;;;;;5027586;28;20041;-86
2022/01/24 13:31:32;;;;;;;44.15;31.88;;;14.20;55.00;;;;;;5029512;28;20079;-86
2022/01/24 13:33:58;;;;;;;48.75;32.92;;;14.00;55.00;;;;;;5036391;28;20041;-86
2022/01/24 13:36:23;;;;;;;42.58;31.33;;;13.80;54.30;;;;;;5019097;28;20072;-86
2022/01/24 13:38:51;;;;;;;49.38;33.15;;;13.50;55.90;;;;;;5036037;28;20037;-85
2022/01/24 13:41:26;;;;;;;46.97;32.85;;;13.20;57.10;;;;;;5035919;28;20505;-87
2022/01/24 13:43:54;;;;;;;58.58;38.97;;;13.10;56.90;;;;;;5015673;28;20041;-86
2022/01/24 13:46:31;;;;;;;47.88;32.65;;;12.80;57.40;;;;;;5031964;28;20044;-81
2022/01/24 13:49:00;;;;;;;47.72;34.55;;;12.70;58.40;;;;;;5032704;28;20112;-82
2022/01/24 13:51:39;;;;;;;42.58;29.95;;;12.60;58.00;;;;;;5034802;28;20493;-85
2022/01/24 13:54:08;;;;;;;40.65;29.58;;;12.50;58.90;;;;;;5034760;28;20037;-85
2022/01/24 13:56:43;;;;;;;43.25;29.17;;;12.50;58.50;;;;;;5036186;28;20034;-81
2022/01/24 13:59:28;;;;;;;43.47;30.23;;;12.30;59.60;;;;;;5031089;28;20481;-80
2022/01/24 14:02:10;;;;;;;44.53;28.83;;;12.30;59.80;;;;;;5033159;28;20049;-78
2022/01/24 14:04:50;;;;;;;40.65;29.20;;;12.20;59.50;;;;;;5033681;28;20159;-79
2022/01/24 14:07:37;;;;;;;41.13;28.92;;;12.20;59.20;;;;;;5032343;28;20037;-80
2022/01/24 14:10:07;;;;;;;44.67;27.95;;;12.20;59.40;;;;;;5034423;28;20583;-82
2022/01/24 14:12:55;;;;;;;39.10;28.52;;;12.00;59.70;;;;;;5012464;28;20038;-82
2022/01/24 14:20:48;;;;;;;46.92;31.80;;;11.80;61.00;;;;;;5031137;28;20029;-80
2022/01/24 14:23:33;;;;;;;43.55;29.33;;;11.70;60.80;;;;;;5028438;28;20413;-80
2022/01/24 14:25:58;;;;;;;40.35;26.95;;;11.50;61.20;;;;;;5016583;28;20033;-84
2022/01/24 14:28:26;;;;;;;39.45;26.30;;;11.50;61.30;;;;;;5035222;28;20034;-84
2022/01/24 14:30:55;;;;;;;38.45;25.63;;;11.50;61.60;;;;;;5035780;28;20099;-84
2022/01/24 14:33:30;;;;;;;35.80;24.27;;;11.50;61.60;;;;;;5028460;28;20081;-84
2022/01/24 14:36:00;;;;;;;37.83;26.02;;;11.50;61.80;;;;;;5017338;28;20041;-84
2022/01/24 14:38:41;;;;;;;35.30;23.40;;;11.40;62.30;;;;;;5035539;28;20608;-84
2022/01/24 14:41:15;;;;;;;34.45;23.17;;;11.40;62.40;;;;;;5033374;28;20041;-85
2022/01/24 14:46:32;;;;;;;38.30;26.02;;;11.40;62.50;;;;;;5027875;28;20036;-84
2022/01/24 14:49:11;;;;;;;37.85;26.13;;;11.20;62.80;;;;;;5034429;28;20038;-80
2022/01/24 14:51:40;;;;;;;38.70;26.20;;;11.20;62.80;;;;;;5034239;28;20038;-80